Search for airport 
image banner adimage banner adimage banner ad
image banner ad

CA05 - Machado Dusters

Located in Stratford, United States

ICAO - CA05, IATA -

Data provided by Airmate  

General information

Coordinates: N36°9'37" W119°48'48"
Elevation is 192 feet MSL.
Magnetic variation is 15° East
View others Airports in California

Operational data

Special qualification required
Current time UTC:
Current local time:
Weather at : KNLC - Lemoore Nas (Reeves Fld) ( 23 km )
METAR: KNLC 221156Z AUTO 33008KT 10SM CLR 17/10 A2988 RMK AO2 SLP115 T01670100 10244 20167 53008
TAF: TAF KNLC 2207/2307 30007KT 9999 SKC QNH2979INS TEMPO 2216/2221 VRB06KT FM222100 23009KT 9999 SKC QNH2974INS FM230000 27009KT 9999 SKC QNH2973INS FM230500 32009KT 9999 SKC QNH2976INS AUTOMATED SENSOR METWATCH 2207 TIL 2215 T16/2213Z T37/2223Z FS30171
View NOTAMs / SUP AIP / TFR affecting this airport [VIEW]
Communications frequencies: [VIEW]

Runways:

RWY identifierQFULength (ft)Width (ft)SurfaceLDA (ft)
14260060ASPH
32260060ASPH

Airport contact information

Address: Stratford United States

Satellite view of CA05